EGQL

RAF Leuchars Airport

St. Andrews, United Kingdom
METAR EGQL 212150Z 26012KT 9999 FEW043 OVC050 16/12 Q1012 BLU
Observed Flight Rules
Jul-21 @ 21:50 UTC (an hour ago) Visual Flight Rules
Wind Visibility Clouds
260° at 12 knots 10,000+ meters
  • Few at 4,300' AGL
  • Overcast at 5,000' AGL
Temperatures Readings
Current 16°C / 61°F
Dewpoint 12°C / 54°F
Humidity 77%
Altimeter 29.88" Hg
Pressure 1012 hPa
Elevation 12
METAR EGQL 212150Z 26012KT 9999 FEW043 OVC050 16/12 Q1012 BLU
Observed Flight Rules
Jul-21 @ 21:50 UTC
(an hour ago)
VFR
Wind Visibility
260° at 12 knots 10,000+ meters
Clouds
  • Few at 4,300' AGL
  • Overcast at 5,000' AGL
Temperature Dewpoint
16°C / 61°F 12°C / 54°F
Humidity Altimeter Pressure
77% 29.88" Hg 1012 hPa